Time;durP1;ratioP1;P1;durP2;ratioP2;P2;SDS_P1;SDS_P2;PMS_P1;PMS_P2;Temp;Humidity;BMP_temperature;BMP_pressure;BME280_temperature;BME280_humidity;BME280_pressure;Samples;Min_cycle;Max_cycle;Signal;HPM_P1;HPM_P2
2022/09/14 00:01:26;;;;;;;3.50;1.60;;;15.20;99.90;;;;;;5074268;28;20559;-71
2022/09/14 00:04:47;;;;;;;4.30;1.93;;;15.20;99.90;;;;;;5072678;28;20468;-71
2022/09/14 00:08:02;;;;;;;2.07;1.57;;;15.20;99.90;;;;;;5074159;28;20820;-72
2022/09/14 00:11:18;;;;;;;2.90;1.50;;;15.20;99.90;;;;;;5070948;28;20469;-71
2022/09/14 00:14:11;;;;;;;3.47;1.50;;;15.10;99.90;;;;;;5050738;28;20464;-71
2022/09/14 00:20:21;;;;;;;5.90;1.43;;;15.20;99.90;;;;;;5072944;28;20441;-71
2022/09/14 00:23:29;;;;;;;4.40;1.50;;;15.10;99.90;;;;;;5066248;28;20517;-72
2022/09/14 00:26:38;;;;;;;2.80;1.67;;;15.00;99.90;;;;;;5058687;28;20454;-71
2022/09/14 00:29:47;;;;;;;6.83;2.00;;;15.00;99.90;;;;;;5074013;28;21045;-71
2022/09/14 00:32:48;;;;;;;6.27;2.03;;;15.00;99.90;;;;;;5070162;28;20493;-71
2022/09/14 00:36:12;;;;;;;5.57;1.60;;;15.00;99.90;;;;;;5062404;28;20454;-71
2022/09/14 00:39:32;;;;;;;3.33;1.67;;;14.90;99.90;;;;;;5072315;28;20925;-71
2022/09/14 00:42:35;;;;;;;6.43;1.70;;;14.90;99.90;;;;;;5069129;28;20472;-71
2022/09/14 00:45:39;;;;;;;1.70;1.30;;;14.90;99.90;;;;;;5077576;28;20476;-71
2022/09/14 00:49:02;;;;;;;5.67;2.03;;;14.90;99.90;;;;;;5010062;28;20469;-71
2022/09/14 00:55:28;;;;;;;5.73;1.60;;;14.80;99.90;;;;;;5010506;28;20456;-71
2022/09/14 00:58:28;;;;;;;4.37;1.63;;;14.70;99.90;;;;;;5007052;28;20461;-71
2022/09/14 01:01:30;;;;;;;3.17;1.67;;;14.70;99.90;;;;;;5004286;28;20616;-71
2022/09/14 01:04:23;;;;;;;3.30;1.73;;;14.70;99.90;;;;;;5008895;28;20487;-71
2022/09/14 01:07:45;;;;;;;4.43;1.50;;;14.70;99.90;;;;;;5064578;28;20449;-71
2022/09/14 01:11:04;;;;;;;6.40;2.10;;;14.70;99.90;;;;;;5033207;28;20454;-71
2022/09/14 01:14:22;;;;;;;4.37;1.67;;;14.70;99.90;;;;;;5059292;28;20489;-71
2022/09/14 01:17:46;;;;;;;4.53;1.70;;;14.70;99.90;;;;;;5064445;28;20526;-71
2022/09/14 01:20:55;;;;;;;3.93;1.77;;;14.60;99.90;;;;;;5066068;28;20458;-71
2022/09/14 01:24:21;;;;;;;9.07;1.60;;;14.60;99.90;;;;;;5064589;28;20862;-71
2022/09/14 01:27:42;;;;;;;3.70;1.60;;;14.60;99.90;;;;;;5052778;28;20860;-71
2022/09/14 01:30:58;;;;;;;6.43;1.93;;;14.50;99.90;;;;;;5062621;28;20454;-73
2022/09/14 01:34:12;;;;;;;2.83;1.40;;;14.50;99.90;;;;;;5068085;28;20549;-73
2022/09/14 01:37:14;;;;;;;2.50;1.57;;;14.50;99.90;;;;;;5065963;28;20465;-73
2022/09/14 01:40:19;;;;;;;4.30;1.87;;;14.40;99.90;;;;;;5058119;28;20983;-73
2022/09/14 01:43:32;;;;;;;2.33;1.40;;;14.40;99.90;;;;;;5067789;28;20563;-71
2022/09/14 01:46:50;;;;;;;3.10;1.47;;;14.30;99.90;;;;;;5069892;28;20496;-71
2022/09/14 01:50:08;;;;;;;4.50;1.83;;;14.30;99.90;;;;;;5072777;28;20446;-73
2022/09/14 01:53:17;;;;;;;3.80;1.30;;;14.20;99.90;;;;;;5071044;28;20862;-74
2022/09/14 01:59:56;;;;;;;3.80;1.47;;;14.20;99.90;;;;;;5075195;28;20957;-71
2022/09/14 02:03:17;;;;;;;3.63;1.60;;;14.20;99.90;;;;;;5071395;28;20996;-73
2022/09/14 02:06:35;;;;;;;6.67;1.70;;;14.10;99.90;;;;;;5064138;28;20478;-73
2022/09/14 02:09:49;;;;;;;3.47;1.57;;;14.10;99.90;;;;;;5070960;28;20438;-73
2022/09/14 02:13:11;;;;;;;3.00;1.43;;;14.10;99.90;;;;;;5066561;28;20905;-73
2022/09/14 02:16:34;;;;;;;3.63;1.60;;;14.00;99.90;;;;;;5055893;28;20529;-73
2022/09/14 02:19:53;;;;;;;3.83;2.13;;;14.00;99.90;;;;;;5071351;28;20464;-73
2022/09/14 02:23:18;;;;;;;2.07;1.40;;;13.90;99.90;;;;;;5070406;28;21020;-73
2022/09/14 02:26:19;;;;;;;3.20;1.90;;;14.00;99.90;;;;;;5069178;28;20477;-71
2022/09/14 02:29:23;;;;;;;3.43;1.87;;;13.90;99.90;;;;;;5068753;28;20460;-71
2022/09/14 02:33:07;;;;;;;5.07;1.93;;;13.90;99.90;;;;;;5068762;28;21403;-73
2022/09/14 02:36:16;;;;;;;3.80;2.17;;;13.80;99.90;;;;;;5068878;28;20464;-72
2022/09/14 02:39:33;;;;;;;3.23;1.53;;;13.80;99.90;;;;;;5062618;28;20458;-71
2022/09/14 02:42:53;;;;;;;2.23;1.80;;;13.80;99.90;;;;;;5068140;28;20508;-73
2022/09/14 02:46:18;;;;;;;2.37;1.53;;;13.80;99.90;;;;;;5065801;28;20591;-72
2022/09/14 02:49:29;;;;;;;5.63;2.37;;;13.80;99.90;;;;;;5071472;28;20464;-73
2022/09/14 02:52:33;;;;;;;3.47;1.83;;;13.80;99.90;;;;;;5072465;28;21076;-73
2022/09/14 02:55:49;;;;;;;3.60;1.97;;;13.70;99.90;;;;;;5067411;28;20607;-73
2022/09/14 03:02:06;;;;;;;3.50;2.17;;;13.60;99.90;;;;;;5066710;28;20470;-73
2022/09/14 03:05:13;;;;;;;3.93;1.80;;;13.60;99.90;;;;;;5069174;28;20476;-73
2022/09/14 03:08:23;;;;;;;4.13;2.10;;;13.60;99.90;;;;;;5072680;28;20450;-72
2022/09/14 03:11:29;;;;;;;4.80;1.90;;;13.50;99.90;;;;;;5068530;28;20557;-73
2022/09/14 03:14:29;;;;;;;3.60;2.03;;;13.50;99.90;;;;;;5066851;28;20487;-73
2022/09/14 03:24:20;;;;;;;1.93;1.53;;;13.50;99.90;;;;;;5071483;28;21105;-73
2022/09/14 03:31:03;;;;;;;3.87;1.97;;;13.60;99.90;;;;;;5067599;28;20453;-73
2022/09/14 03:34:21;;;;;;;5.33;2.17;;;13.50;99.90;;;;;;5057538;28;20612;-72
2022/09/14 03:37:23;;;;;;;2.43;1.93;;;13.50;99.90;;;;;;5073242;28;20988;-73
2022/09/14 03:40:31;;;;;;;2.00;1.80;;;13.50;99.90;;;;;;5072091;28;20453;-73
2022/09/14 03:44:06;;;;;;;3.80;2.50;;;13.40;99.90;;;;;;5062874;28;20618;-73
2022/09/14 03:47:20;;;;;;;4.50;2.13;;;13.40;99.90;;;;;;4965592;28;20492;-72
2022/09/14 03:50:34;;;;;;;3.90;2.23;;;13.40;99.90;;;;;;5067306;28;21016;-73
2022/09/14 03:53:48;;;;;;;3.03;2.07;;;13.40;99.90;;;;;;5074967;28;20559;-72
2022/09/14 04:00:19;;;;;;;4.37;2.10;;;13.40;99.90;;;;;;5076145;28;20461;-72
2022/09/14 04:03:22;;;;;;;5.43;2.03;;;13.30;99.90;;;;;;5071396;28;20491;-73
2022/09/14 04:07:09;;;;;;;3.37;2.00;;;13.30;99.90;;;;;;5076509;28;20996;-72
2022/09/14 04:10:18;;;;;;;5.40;2.57;;;13.30;99.90;;;;;;5069108;28;20465;-72
2022/09/14 04:13:25;;;;;;;3.50;1.93;;;13.20;99.90;;;;;;5067398;28;20895;-72
2022/09/14 04:16:45;;;;;;;4.70;2.20;;;13.20;99.90;;;;;;5065003;28;20937;-72
2022/09/14 04:20:07;;;;;;;3.50;2.17;;;13.20;99.90;;;;;;5073920;28;20502;-72
2022/09/14 04:23:40;;;;;;;5.03;2.00;;;13.20;99.90;;;;;;5038018;28;20472;-72
2022/09/14 04:27:08;;;;;;;2.60;2.23;;;13.20;99.90;;;;;;5075899;28;20504;-73
2022/09/14 04:30:36;;;;;;;2.40;2.10;;;13.20;99.90;;;;;;5072850;28;20451;-72
2022/09/14 04:33:34;;;;;;;3.90;2.10;;;13.20;99.90;;;;;;5067904;28;20480;-72
2022/09/14 04:36:39;;;;;;;3.03;2.23;;;13.20;99.90;;;;;;5064664;28;20446;-72
2022/09/14 04:39:47;;;;;;;4.20;2.13;;;13.20;99.90;;;;;;5062464;28;20472;-72
2022/09/14 04:42:45;;;;;;;3.93;2.10;;;13.20;99.90;;;;;;5062247;28;21019;-72
2022/09/14 04:46:11;;;;;;;5.40;2.20;;;13.20;99.90;;;;;;5063107;28;20765;-72
2022/09/14 04:49:12;;;;;;;4.40;2.20;;;13.20;99.90;;;;;;5071934;28;20515;-72
2022/09/14 04:55:47;;;;;;;;;;;;;;;;;;;;;
2022/09/14 04:59:02;;;;;;;5.53;2.73;;;13.40;99.90;;;;;;5065685;28;20449;-73
2022/09/14 05:01:59;;;;;;;2.73;2.20;;;13.40;99.90;;;;;;5053819;28;20484;-73
2022/09/14 05:05:10;;;;;;;6.83;2.50;;;13.50;99.90;;;;;;5060696;28;22734;-72
2022/09/14 05:08:15;;;;;;;6.10;2.37;;;13.60;99.90;;;;;;5063703;28;20500;-72
2022/09/14 05:11:15;;;;;;;2.50;2.30;;;13.60;99.90;;;;;;5051248;28;20470;-72
2022/09/14 05:14:26;;;;;;;4.90;2.37;;;13.60;99.90;;;;;;5059264;28;20535;-72
2022/09/14 05:17:35;;;;;;;5.13;3.10;;;13.70;99.90;;;;;;5057528;28;21439;-72
2022/09/14 05:20:53;;;;;;;5.83;2.80;;;13.70;99.90;;;;;;5063604;28;20448;-72
2022/09/14 05:24:18;;;;;;;2.60;2.40;;;13.70;99.90;;;;;;5055915;28;20835;-72
2022/09/14 05:30:52;;;;;;;4.67;2.37;;;13.80;99.90;;;;;;5047965;28;20454;-72
2022/09/14 05:34:00;;;;;;;4.03;2.27;;;13.80;99.90;;;;;;5065443;28;20554;-72
2022/09/14 05:37:14;;;;;;;2.83;2.53;;;13.80;99.90;;;;;;5062082;28;20449;-72
2022/09/14 05:40:07;;;;;;;4.53;2.40;;;13.80;99.90;;;;;;5067916;28;20992;-72
2022/09/14 05:43:12;;;;;;;5.20;2.43;;;13.90;99.90;;;;;;5044908;28;20485;-72
2022/09/14 05:53:19;;;;;;;3.07;2.40;;;13.90;99.90;;;;;;4969823;28;20546;-71
2022/09/14 05:56:26;;;;;;;5.00;2.83;;;13.90;99.90;;;;;;4986892;28;20463;-72
2022/09/14 05:59:35;;;;;;;3.70;2.50;;;14.00;99.90;;;;;;4992305;28;20452;-72
2022/09/14 06:02:27;;;;;;;3.97;2.30;;;14.00;99.90;;;;;;4969385;28;21281;-72
2022/09/14 06:05:18;;;;;;;2.53;2.30;;;14.00;99.90;;;;;;4988230;28;20457;-72
2022/09/14 06:08:08;;;;;;;5.17;2.70;;;14.00;99.90;;;;;;4974945;28;21394;-72
2022/09/14 06:11:03;;;;;;;6.17;2.80;;;14.10;99.90;;;;;;4974211;28;20445;-72
2022/09/14 06:13:54;;;;;;;2.70;2.10;;;14.10;99.90;;;;;;4986782;28;21067;-72
2022/09/14 06:16:42;;;;;;;4.93;2.37;;;14.10;99.90;;;;;;4985279;28;20456;-72
2022/09/14 06:19:39;;;;;;;3.30;2.27;;;14.20;99.90;;;;;;4989305;28;20920;-72
2022/09/14 06:22:32;;;;;;;4.90;2.87;;;14.20;99.90;;;;;;4986711;28;20480;-72
2022/09/14 06:25:26;;;;;;;3.60;2.50;;;14.20;99.90;;;;;;4988308;28;20552;-72
2022/09/14 06:28:17;;;;;;;3.47;2.37;;;14.30;99.90;;;;;;5070864;28;20485;-72
2022/09/14 06:31:08;;;;;;;4.50;2.03;;;14.30;99.90;;;;;;5067965;28;20464;-72
2022/09/14 06:34:02;;;;;;;3.40;2.30;;;14.30;99.90;;;;;;5074187;28;20473;-72
2022/09/14 06:36:53;;;;;;;5.00;2.40;;;14.40;99.90;;;;;;5071974;28;20496;-72
2022/09/14 06:39:45;;;;;;;5.83;2.83;;;14.40;99.90;;;;;;5071997;28;20898;-72
2022/09/14 06:42:37;;;;;;;3.43;2.30;;;14.40;99.90;;;;;;5067657;28;20466;-72
2022/09/14 06:45:25;;;;;;;3.53;2.00;;;14.50;99.90;;;;;;5070208;28;20462;-72
2022/09/14 06:48:14;;;;;;;7.03;2.83;;;14.50;99.90;;;;;;5069667;28;20469;-72
2022/09/14 06:51:12;;;;;;;4.63;2.70;;;14.60;99.90;;;;;;5064467;28;20476;-72
2022/09/14 06:54:07;;;;;;;3.37;2.20;;;14.60;99.90;;;;;;5071508;28;20484;-72
2022/09/14 06:57:00;;;;;;;5.20;2.40;;;14.70;99.90;;;;;;5067839;28;20454;-72
2022/09/14 06:59:48;;;;;;;4.20;2.23;;;14.70;99.90;;;;;;5068598;28;20455;-72
2022/09/14 07:02:39;;;;;;;4.43;2.17;;;14.80;99.90;;;;;;5068414;28;20480;-72
2022/09/14 07:05:28;;;;;;;6.87;2.90;;;14.80;99.90;;;;;;5067096;28;20968;-72
2022/09/14 07:08:16;;;;;;;5.20;2.63;;;14.80;99.90;;;;;;5064734;28;20481;-72
2022/09/14 07:11:10;;;;;;;4.87;2.90;;;14.80;99.90;;;;;;5066258;28;20478;-72
2022/09/14 07:14:01;;;;;;;5.13;2.10;;;14.80;99.90;;;;;;5067188;28;20958;-72
2022/09/14 07:16:52;;;;;;;3.10;2.07;;;14.90;99.90;;;;;;5067720;28;20523;-72
2022/09/14 07:19:44;;;;;;;2.30;2.10;;;14.90;99.90;;;;;;5069386;28;20446;-72
2022/09/14 07:22:34;;;;;;;7.30;2.80;;;15.00;99.90;;;;;;5062504;28;20488;-72
2022/09/14 07:25:25;;;;;;;5.17;2.40;;;15.10;99.90;;;;;;5069808;28;20445;-72
2022/09/14 07:28:17;;;;;;;3.97;2.50;;;15.10;99.90;;;;;;5061910;28;20478;-72
2022/09/14 07:31:18;;;;;;;4.80;2.20;;;15.30;99.90;;;;;;5067420;28;20469;-72
2022/09/14 07:34:06;;;;;;;4.03;2.00;;;15.40;99.90;;;;;;5067844;28;20504;-72
2022/09/14 07:36:55;;;;;;;4.40;2.20;;;15.40;99.90;;;;;;5072945;28;20451;-72
2022/09/14 07:39:43;;;;;;;5.17;2.73;;;15.40;99.90;;;;;;5061219;28;20640;-72
2022/09/14 07:42:33;;;;;;;3.20;1.70;;;15.50;99.90;;;;;;5068036;28;20481;-72
2022/09/14 07:45:27;;;;;;;7.50;2.57;;;15.50;99.90;;;;;;5074086;28;20461;-72
2022/09/14 07:48:15;;;;;;;4.73;1.90;;;15.60;99.90;;;;;;5073387;28;20849;-72
2022/09/14 07:51:09;;;;;;;3.93;2.10;;;15.60;99.90;;;;;;5069293;28;20472;-72
2022/09/14 07:53:59;;;;;;;5.47;2.00;;;15.70;99.90;;;;;;5073206;28;20548;-72
2022/09/14 07:56:54;;;;;;;3.73;1.80;;;15.70;99.90;;;;;;5068777;28;20462;-72
2022/09/14 07:59:44;;;;;;;4.97;2.43;;;15.70;99.90;;;;;;5069802;28;20440;-72
2022/09/14 08:02:38;;;;;;;7.50;2.00;;;15.80;99.90;;;;;;5063717;28;20465;-72
2022/09/14 08:05:27;;;;;;;4.53;1.63;;;15.90;99.90;;;;;;5068654;28;20454;-72
2022/09/14 08:08:23;;;;;;;4.13;1.83;;;15.90;99.90;;;;;;5067858;28;20477;-71
2022/09/14 08:11:14;;;;;;;4.03;1.93;;;16.10;99.90;;;;;;5071957;28;20462;-72
2022/09/14 08:14:08;;;;;;;2.77;1.53;;;16.10;99.90;;;;;;5070610;28;20489;-72
2022/09/14 08:16:58;;;;;;;5.47;1.80;;;16.10;99.90;;;;;;5071342;28;20450;-72
2022/09/14 08:19:47;;;;;;;3.10;1.30;;;16.20;99.90;;;;;;5069041;28;20466;-72
2022/09/14 08:22:40;;;;;;;3.23;1.63;;;16.30;99.90;;;;;;5073871;28;21035;-72
2022/09/14 08:25:28;;;;;;;2.10;1.30;;;16.30;99.90;;;;;;5073172;28;21340;-76
2022/09/14 08:28:16;;;;;;;4.13;1.40;;;16.30;99.90;;;;;;5066196;28;20499;-72
2022/09/14 08:31:09;;;;;;;4.70;2.10;;;16.30;99.90;;;;;;5070670;28;20475;-72
2022/09/14 08:33:59;;;;;;;4.63;1.57;;;16.40;99.90;;;;;;5067195;28;20474;-72
2022/09/14 08:36:51;;;;;;;2.53;1.43;;;16.50;99.90;;;;;;5069594;28;20810;-72
2022/09/14 08:39:39;;;;;;;5.83;1.30;;;16.50;99.90;;;;;;5074943;28;20449;-72
2022/09/14 08:42:34;;;;;;;2.70;1.50;;;16.60;99.90;;;;;;5069860;28;20476;-72
2022/09/14 08:45:23;;;;;;;1.93;1.43;;;16.60;99.90;;;;;;5066074;28;20457;-72
2022/09/14 08:48:23;;;;;;;2.80;1.10;;;16.70;99.90;;;;;;5072136;28;20499;-71
2022/09/14 08:51:11;;;;;;;3.47;1.50;;;16.90;99.90;;;;;;5065563;28;20459;-72
2022/09/14 08:54:02;;;;;;;2.10;1.43;;;16.90;99.90;;;;;;5077033;28;20646;-72
2022/09/14 08:57:00;;;;;;;2.67;1.40;;;16.90;99.90;;;;;;5066935;28;20452;-72
2022/09/14 09:00:03;;;;;;;5.90;1.27;;;16.90;99.90;;;;;;5068366;28;20457;-72
2022/09/14 09:03:24;;;;;;;3.50;1.40;;;17.00;99.90;;;;;;5065206;28;20482;-72
2022/09/14 09:06:17;;;;;;;4.40;1.90;;;17.10;99.90;;;;;;5069400;28;20460;-72
2022/09/14 09:09:24;;;;;;;5.67;1.40;;;17.10;99.90;;;;;;5073954;28;20481;-72
2022/09/14 09:12:19;;;;;;;3.03;1.23;;;17.20;99.90;;;;;;5067563;28;20481;-72
2022/09/14 09:15:22;;;;;;;3.00;1.40;;;17.30;99.90;;;;;;5070934;28;20988;-72
2022/09/14 09:18:18;;;;;;;4.77;1.20;;;17.30;99.90;;;;;;5065870;28;20458;-72
2022/09/14 09:21:11;;;;;;;3.90;1.40;;;17.40;99.90;;;;;;5067082;28;20477;-72
2022/09/14 09:24:15;;;;;;;3.57;1.40;;;17.40;99.90;;;;;;5070239;28;20483;-72
2022/09/14 09:27:15;;;;;;;2.37;1.10;;;17.50;99.90;;;;;;5060816;28;20453;-73
2022/09/14 09:30:03;;;;;;;2.13;1.27;;;17.60;99.90;;;;;;5068133;28;20478;-72
2022/09/14 09:33:03;;;;;;;3.33;1.70;;;17.70;99.90;;;;;;5071242;28;20485;-72
2022/09/14 09:35:52;;;;;;;3.37;1.40;;;17.80;99.90;;;;;;5070518;28;20452;-72
2022/09/14 09:38:41;;;;;;;3.40;1.20;;;17.80;99.90;;;;;;5070445;28;20457;-72
2022/09/14 09:41:36;;;;;;;6.83;1.87;;;17.80;99.90;;;;;;5070421;28;20477;-72
2022/09/14 09:44:29;;;;;;;3.37;1.77;;;17.90;99.90;;;;;;5073135;28;20481;-72
2022/09/14 09:47:24;;;;;;;6.50;1.77;;;18.00;99.90;;;;;;5067305;28;20455;-72
2022/09/14 09:50:20;;;;;;;2.83;1.43;;;17.90;99.90;;;;;;5073390;28;20469;-72
2022/09/14 09:53:16;;;;;;;2.00;1.40;;;18.00;99.90;;;;;;5072703;28;20508;-72
2022/09/14 09:56:10;;;;;;;2.30;1.10;;;18.00;99.90;;;;;;5057516;28;20478;-72
2022/09/14 09:59:07;;;;;;;2.20;1.27;;;18.00;99.90;;;;;;5068247;28;20463;-72
2022/09/14 10:02:29;;;;;;;2.80;1.60;;;18.10;99.90;;;;;;5067375;28;20478;-72
2022/09/14 10:05:30;;;;;;;5.93;1.70;;;18.30;99.90;;;;;;5066699;28;20457;-72
2022/09/14 10:08:23;;;;;;;1.93;1.10;;;18.30;99.90;;;;;;5073963;28;20444;-72
2022/09/14 10:11:35;;;;;;;3.43;1.23;;;18.20;99.90;;;;;;5059237;28;20512;-71
2022/09/14 10:14:30;;;;;;;4.50;1.53;;;18.20;99.90;;;;;;5068206;28;20598;-72
2022/09/14 10:17:23;;;;;;;1.93;1.37;;;18.20;99.90;;;;;;5061479;28;20461;-72
2022/09/14 10:20:21;;;;;;;4.97;1.50;;;18.10;99.90;;;;;;5070063;28;20852;-72
2022/09/14 10:23:24;;;;;;;1.77;1.30;;;18.10;99.90;;;;;;5069687;28;20869;-72
2022/09/14 10:26:32;;;;;;;3.60;1.20;;;18.10;99.90;;;;;;5068228;28;20466;-72
2022/09/14 10:29:42;;;;;;;2.93;1.50;;;18.10;99.90;;;;;;5071052;28;20487;-72
2022/09/14 10:32:44;;;;;;;5.43;2.10;;;18.10;99.90;;;;;;5064760;28;20466;-72
2022/09/14 10:35:44;;;;;;;7.53;1.97;;;18.10;99.90;;;;;;5065074;28;20460;-72
2022/09/14 10:38:41;;;;;;;4.07;1.40;;;18.10;99.90;;;;;;5070604;28;20445;-72
2022/09/14 10:41:44;;;;;;;3.60;1.30;;;18.00;99.90;;;;;;5069205;28;20849;-72
2022/09/14 10:44:53;;;;;;;4.77;2.07;;;18.00;99.90;;;;;;5069592;28;20465;-72
2022/09/14 10:48:09;;;;;;;4.80;1.30;;;18.00;99.90;;;;;;5071776;28;21264;-71
2022/09/14 10:51:10;;;;;;;5.33;2.10;;;17.90;99.90;;;;;;5053460;28;20493;-72
2022/09/14 10:54:21;;;;;;;2.83;1.80;;;17.90;99.90;;;;;;5065381;28;20493;-72
2022/09/14 10:57:20;;;;;;;2.73;1.83;;;17.90;99.90;;;;;;5070162;28;20621;-72
2022/09/14 11:00:13;;;;;;;3.57;1.50;;;17.90;99.90;;;;;;5064726;28;20445;-71
2022/09/14 11:03:22;;;;;;;2.67;1.40;;;17.90;99.90;;;;;;5065687;28;20481;-72
2022/09/14 11:06:33;;;;;;;6.47;1.83;;;18.00;99.90;;;;;;5071299;28;20459;-71
2022/09/14 11:09:39;;;;;;;4.13;1.40;;;18.00;99.90;;;;;;5073354;28;20472;-72
2022/09/14 11:12:42;;;;;;;3.70;1.60;;;18.20;99.90;;;;;;5070301;28;20468;-72
2022/09/14 11:15:42;;;;;;;3.47;1.67;;;18.40;99.90;;;;;;5073031;28;20972;-71
2022/09/14 11:18:44;;;;;;;5.13;1.87;;;18.60;99.90;;;;;;5073045;28;20450;-72
2022/09/14 11:21:51;;;;;;;2.17;1.20;;;18.80;99.90;;;;;;5070688;28;21212;-72
2022/09/14 11:24:48;;;;;;;2.57;1.20;;;18.90;99.90;;;;;;5075498;28;20483;-72
2022/09/14 11:27:43;;;;;;;5.70;1.60;;;19.00;99.90;;;;;;5064471;28;20459;-72
2022/09/14 11:30:41;;;;;;;3.57;1.57;;;19.10;99.90;;;;;;5065955;28;20477;-72
2022/09/14 11:33:44;;;;;;;5.80;2.10;;;19.10;99.90;;;;;;5069307;28;20478;-71
2022/09/14 11:36:38;;;;;;;4.77;1.90;;;19.10;99.90;;;;;;5057060;28;20457;-73
2022/09/14 11:39:30;;;;;;;4.57;2.03;;;19.00;99.90;;;;;;5063119;28;21439;-72
2022/09/14 11:42:27;;;;;;;7.13;1.70;;;18.90;99.90;;;;;;5071522;28;21807;-73
2022/09/14 11:45:27;;;;;;;3.50;1.43;;;18.90;99.90;;;;;;5071562;28;20449;-73
2022/09/14 11:48:29;;;;;;;5.60;1.50;;;18.90;99.90;;;;;;5071181;28;20968;-73
2022/09/14 11:51:40;;;;;;;3.37;1.67;;;18.80;99.90;;;;;;5063597;28;20481;-72
2022/09/14 11:54:29;;;;;;;3.30;1.30;;;18.70;99.90;;;;;;5064472;28;21514;-72
2022/09/14 11:57:19;;;;;;;2.30;1.20;;;18.60;99.90;;;;;;5053801;28;20553;-72
2022/09/14 12:01:02;;;;;;;4.70;1.50;;;18.60;99.90;;;;;;5060972;28;20994;-72
2022/09/14 12:04:11;;;;;;;7.57;2.00;;;18.60;99.90;;;;;;5060973;28;21060;-72
2022/09/14 12:07:02;;;;;;;4.73;2.30;;;18.60;99.90;;;;;;5062705;28;20456;-72
2022/09/14 12:10:21;;;;;;;1.60;1.43;;;18.60;99.90;;;;;;5064198;28;20548;-72
2022/09/14 12:13:22;;;;;;;4.93;1.87;;;18.60;99.90;;;;;;5059666;28;20492;-72
2022/09/14 12:16:12;;;;;;;4.13;1.57;;;18.50;99.90;;;;;;5063461;28;20444;-71
2022/09/14 12:19:03;;;;;;;2.83;1.47;;;18.50;99.90;;;;;;5064909;28;20453;-72
2022/09/14 12:21:56;;;;;;;2.67;1.80;;;18.40;99.90;;;;;;5065404;28;21080;-72
2022/09/14 12:24:56;;;;;;;3.57;1.70;;;18.50;99.90;;;;;;5061074;28;20480;-71
2022/09/14 12:27:56;;;;;;;3.63;1.60;;;18.60;99.90;;;;;;5057794;28;20603;-71
2022/09/14 12:31:10;;;;;;;6.50;1.77;;;18.60;99.90;;;;;;5059549;28;20985;-72
2022/09/14 12:34:19;;;;;;;2.93;1.50;;;18.90;99.90;;;;;;5064369;28;20513;-72
2022/09/14 12:37:31;;;;;;;5.63;2.00;;;19.10;99.90;;;;;;5069312;28;20501;-71
2022/09/14 12:40:36;;;;;;;6.70;1.80;;;19.20;99.90;;;;;;5061667;28;20932;-71
2022/09/14 12:43:54;;;;;;;3.90;1.90;;;19.10;99.90;;;;;;5063732;28;22001;-71
2022/09/14 12:46:44;;;;;;;4.77;1.67;;;19.10;99.90;;;;;;5063710;28;21525;-71
2022/09/14 12:49:37;;;;;;;3.73;1.67;;;18.90;99.90;;;;;;5069123;28;21740;-70
2022/09/14 12:52:39;;;;;;;2.90;1.50;;;18.90;99.90;;;;;;5061769;28;22889;-71
2022/09/14 12:55:43;;;;;;;4.73;2.77;;;18.80;99.90;;;;;;5064550;28;20854;-71
2022/09/14 12:58:58;;;;;;;5.10;2.03;;;18.70;99.90;;;;;;5061547;28;20460;-73
2022/09/14 13:01:58;;;;;;;2.77;1.63;;;18.70;99.90;;;;;;5063836;28;20473;-73
2022/09/14 13:04:59;;;;;;;6.30;2.00;;;18.70;99.90;;;;;;5065477;28;20481;-71
2022/09/14 13:07:48;;;;;;;4.23;1.63;;;18.80;99.90;;;;;;5063498;28;20454;-72
2022/09/14 13:10:38;;;;;;;4.50;1.90;;;18.80;99.90;;;;;;5063016;28;20477;-72
2022/09/14 13:13:36;;;;;;;5.00;1.97;;;18.90;99.90;;;;;;5065312;28;20482;-72
2022/09/14 13:16:38;;;;;;;5.30;2.20;;;19.10;99.90;;;;;;5065041;28;20449;-71
2022/09/14 13:19:35;;;;;;;3.70;1.80;;;19.20;99.90;;;;;;5069265;28;20585;-73
2022/09/14 13:22:28;;;;;;;3.60;1.80;;;19.20;99.90;;;;;;5062685;28;20468;-70
2022/09/14 13:25:32;;;;;;;5.33;2.10;;;19.10;99.90;;;;;;5063306;28;20450;-70
2022/09/14 13:28:31;;;;;;;2.87;1.67;;;19.20;99.90;;;;;;5052111;28;20950;-70
2022/09/14 13:31:31;;;;;;;3.53;1.80;;;19.10;99.90;;;;;;5064950;28;20461;-71
2022/09/14 13:34:29;;;;;;;3.57;2.10;;;19.10;99.90;;;;;;5068519;28;20504;-70
2022/09/14 13:37:30;;;;;;;5.63;1.63;;;19.00;99.90;;;;;;5059516;28;20452;-70
2022/09/14 13:40:24;;;;;;;6.10;1.90;;;19.00;99.90;;;;;;5060065;28;20521;-70
2022/09/14 13:43:24;;;;;;;5.03;1.80;;;19.00;99.90;;;;;;5061690;28;20485;-70
2022/09/14 13:46:17;;;;;;;3.27;1.60;;;19.00;99.90;;;;;;5060961;28;20460;-70
2022/09/14 13:49:12;;;;;;;5.00;1.97;;;18.90;99.90;;;;;;5067080;28;20454;-70
2022/09/14 13:52:26;;;;;;;4.53;2.00;;;18.90;99.90;;;;;;5065985;28;20488;-70
2022/09/14 13:55:54;;;;;;;4.33;1.87;;;18.90;99.90;;;;;;5062026;28;20445;-71
2022/09/14 13:58:49;;;;;;;4.53;1.53;;;18.90;99.90;;;;;;5056589;28;20460;-71
2022/09/14 14:01:54;;;;;;;5.30;1.80;;;18.90;99.90;;;;;;5052987;28;21018;-72
2022/09/14 14:04:48;;;;;;;3.60;2.13;;;18.90;99.90;;;;;;5060992;28;20476;-71
2022/09/14 14:07:49;;;;;;;3.47;1.90;;;18.90;99.90;;;;;;5063439;28;20461;-71
2022/09/14 14:10:50;;;;;;;5.50;1.50;;;18.90;99.90;;;;;;5066272;28;20519;-71
2022/09/14 14:13:40;;;;;;;5.80;2.20;;;18.90;99.90;;;;;;5061733;28;20469;-71
2022/09/14 14:16:32;;;;;;;3.17;1.80;;;19.00;99.90;;;;;;5055592;28;21069;-71
2022/09/14 14:19:31;;;;;;;3.77;1.70;;;18.90;99.90;;;;;;5055852;28;20442;-72
2022/09/14 14:22:31;;;;;;;2.60;1.50;;;19.00;99.90;;;;;;5054615;28;20492;-71
2022/09/14 14:25:31;;;;;;;3.83;2.00;;;19.00;99.90;;;;;;5059911;28;20457;-71
2022/09/14 14:28:24;;;;;;;2.63;1.40;;;19.00;99.90;;;;;;5063174;28;20465;-71
2022/09/14 14:31:18;;;;;;;4.40;1.50;;;19.10;99.90;;;;;;5045631;28;20486;-71
2022/09/14 14:34:19;;;;;;;2.73;1.70;;;19.10;99.90;;;;;;5041778;28;20897;-71
2022/09/14 14:37:09;;;;;;;3.57;1.50;;;19.10;99.90;;;;;;5056737;28;20449;-71
2022/09/14 14:40:00;;;;;;;2.70;1.27;;;19.10;99.90;;;;;;5061505;28;20475;-71
2022/09/14 14:42:56;;;;;;;2.87;1.40;;;19.10;99.90;;;;;;5054962;28;20485;-71
2022/09/14 14:45:47;;;;;;;2.03;1.10;;;19.10;99.90;;;;;;5067286;28;20457;-71
2022/09/14 14:48:47;;;;;;;3.77;1.23;;;19.10;99.90;;;;;;5067503;28;20987;-71
2022/09/14 14:51:36;;;;;;;2.23;1.07;;;19.20;99.90;;;;;;5062216;28;20515;-71
2022/09/14 14:54:29;;;;;;;1.70;1.20;;;19.10;99.90;;;;;;5063742;28;20556;-71
2022/09/14 14:57:19;;;;;;;2.47;1.43;;;19.20;99.90;;;;;;5064592;28;20480;-71
2022/09/14 15:00:16;;;;;;;3.23;1.20;;;19.40;99.90;;;;;;5067724;28;20995;-71
2022/09/14 15:03:11;;;;;;;1.77;1.10;;;19.50;99.90;;;;;;5068370;28;20876;-71
2022/09/14 15:06:15;;;;;;;1.90;1.03;;;19.70;99.90;;;;;;5064445;28;20457;-71
2022/09/14 15:09:08;;;;;;;1.10;1.00;;;19.70;99.90;;;;;;5062035;28;20456;-71
2022/09/14 15:12:04;;;;;;;2.97;1.07;;;19.70;99.90;;;;;;5066520;28;20481;-71
2022/09/14 15:15:03;;;;;;;1.93;0.80;;;19.70;99.90;;;;;;5066461;28;20488;-71
2022/09/14 15:17:59;;;;;;;3.00;1.00;;;19.70;99.90;;;;;;5072146;28;20449;-71
2022/09/14 15:20:50;;;;;;;2.73;0.97;;;19.70;99.90;;;;;;5064805;28;20833;-71
2022/09/14 15:23:39;;;;;;;1.00;0.73;;;19.70;99.90;;;;;;5063783;28;20465;-71
2022/09/14 15:26:34;;;;;;;1.60;1.03;;;19.50;99.90;;;;;;5061398;28;20603;-71
2022/09/14 15:29:25;;;;;;;2.10;1.10;;;19.50;99.90;;;;;;5057413;28;20841;-71
2022/09/14 15:32:21;;;;;;;4.73;1.30;;;19.50;99.90;;;;;;5069433;28;20484;-71
2022/09/14 15:35:13;;;;;;;2.33;1.00;;;19.40;99.90;;;;;;5063706;28;20450;-71
2022/09/14 15:38:10;;;;;;;2.13;1.10;;;19.30;99.90;;;;;;5069872;28;20450;-71
2022/09/14 15:41:00;;;;;;;1.87;0.60;;;19.20;99.90;;;;;;5064340;28;20449;-71
2022/09/14 15:43:51;;;;;;;1.20;0.70;;;19.20;99.90;;;;;;5063793;28;20473;-71
2022/09/14 15:46:40;;;;;;;1.00;0.90;;;19.10;99.90;;;;;;5068551;28;20947;-71
2022/09/14 15:49:43;;;;;;;1.57;0.60;;;19.10;99.90;;;;;;5060765;28;20445;-71
2022/09/14 15:52:37;;;;;;;1.17;0.70;;;19.00;99.90;;;;;;5066686;28;20472;-71
2022/09/14 15:55:34;;;;;;;1.20;0.57;;;19.00;99.90;;;;;;5069978;28;20456;-71
2022/09/14 15:58:27;;;;;;;1.43;0.70;;;19.00;99.90;;;;;;5075266;28;20449;-72
2022/09/14 16:01:18;;;;;;;1.63;0.70;;;18.90;99.90;;;;;;5056263;28;20530;-72
2022/09/14 16:04:12;;;;;;;2.17;1.20;;;18.90;99.90;;;;;;5073310;28;20473;-71
2022/09/14 16:07:00;;;;;;;2.10;1.00;;;18.90;99.90;;;;;;5070426;28;20461;-71
2022/09/14 16:09:50;;;;;;;1.03;0.90;;;18.90;99.90;;;;;;5064463;28;20972;-71
2022/09/14 16:12:41;;;;;;;1.23;0.80;;;18.90;99.90;;;;;;5068714;28;20468;-71
2022/09/14 16:15:33;;;;;;;1.13;1.00;;;18.80;99.90;;;;;;5066141;28;20491;-71
2022/09/14 16:18:25;;;;;;;1.00;0.90;;;18.70;99.90;;;;;;5057747;28;20463;-72
2022/09/14 16:21:29;;;;;;;1.27;0.83;;;18.60;99.90;;;;;;5057510;28;20484;-71
2022/09/14 16:24:23;;;;;;;1.07;0.80;;;18.60;99.90;;;;;;5063636;28;20475;-71
2022/09/14 16:27:18;;;;;;;0.90;0.90;;;18.60;99.90;;;;;;5071987;28;20440;-71